sensor_id;sensor_type;location;lat;lon;timestamp;temperature;humidity
21037;DHT22;10677;50.942;4.028;2022-08-30T00:01:03;18.70;99.90
21037;DHT22;10677;50.942;4.028;2022-08-30T00:03:34;18.60;99.90
21037;DHT22;10677;50.942;4.028;2022-08-30T00:06:01;18.60;99.90
21037;DHT22;10677;50.942;4.028;2022-08-30T00:08:27;18.70;99.90
21037;DHT22;10677;50.942;4.028;2022-08-30T00:10:53;18.60;99.90
21037;DHT22;10677;50.942;4.028;2022-08-30T00:13:21;18.50;99.90
21037;DHT22;10677;50.942;4.028;2022-08-30T00:15:47;18.60;99.90
21037;DHT22;10677;50.942;4.028;2022-08-30T00:18:13;18.50;99.90
21037;DHT22;10677;50.942;4.028;2022-08-30T00:20:40;18.40;99.90
21037;DHT22;10677;50.942;4.028;2022-08-30T00:23:05;18.50;99.90
21037;DHT22;10677;50.942;4.028;2022-08-30T00:25:31;18.70;99.90
21037;DHT22;10677;50.942;4.028;2022-08-30T00:27:57;18.60;99.90
21037;DHT22;10677;50.942;4.028;2022-08-30T00:30:23;18.30;99.90
21037;DHT22;10677;50.942;4.028;2022-08-30T00:32:49;18.40;99.90
21037;DHT22;10677;50.942;4.028;2022-08-30T00:35:16;18.50;99.90
21037;DHT22;10677;50.942;4.028;2022-08-30T00:37:42;18.50;99.90
21037;DHT22;10677;50.942;4.028;2022-08-30T00:40:09;18.40;99.90
21037;DHT22;10677;50.942;4.028;2022-08-30T00:42:37;18.40;99.90
21037;DHT22;10677;50.942;4.028;2022-08-30T00:45:23;18.60;99.90
21037;DHT22;10677;50.942;4.028;2022-08-30T00:47:49;18.70;99.90
21037;DHT22;10677;50.942;4.028;2022-08-30T00:50:16;19.00;99.90
21037;DHT22;10677;50.942;4.028;2022-08-30T00:52:46;19.10;99.90
21037;DHT22;10677;50.942;4.028;2022-08-30T00:55:13;18.80;99.90
21037;DHT22;10677;50.942;4.028;2022-08-30T00:57:42;18.50;99.90
21037;DHT22;10677;50.942;4.028;2022-08-30T01:00:11;18.60;99.90
21037;DHT22;10677;50.942;4.028;2022-08-30T01:02:37;18.70;99.90
21037;DHT22;10677;50.942;4.028;2022-08-30T01:05:05;18.40;99.90
21037;DHT22;10677;50.942;4.028;2022-08-30T01:07:31;18.30;99.90
21037;DHT22;10677;50.942;4.028;2022-08-30T01:09:57;18.40;99.90
21037;DHT22;10677;50.942;4.028;2022-08-30T01:12:23;18.40;99.90
21037;DHT22;10677;50.942;4.028;2022-08-30T01:14:49;18.40;99.90
21037;DHT22;10677;50.942;4.028;2022-08-30T01:17:15;18.50;99.90
21037;DHT22;10677;50.942;4.028;2022-08-30T01:19:58;18.40;99.90
21037;DHT22;10677;50.942;4.028;2022-08-30T01:25:22;17.70;99.90
21037;DHT22;10677;50.942;4.028;2022-08-30T01:27:52;17.70;99.90
21037;DHT22;10677;50.942;4.028;2022-08-30T01:30:20;17.70;99.90
21037;DHT22;10677;50.942;4.028;2022-08-30T01:32:48;17.80;99.90
21037;DHT22;10677;50.942;4.028;2022-08-30T01:35:17;17.90;99.90
21037;DHT22;10677;50.942;4.028;2022-08-30T01:37:44;18.10;99.90
21037;DHT22;10677;50.942;4.028;2022-08-30T01:40:12;18.20;99.90
21037;DHT22;10677;50.942;4.028;2022-08-30T01:42:39;18.40;99.90
21037;DHT22;10677;50.942;4.028;2022-08-30T01:45:05;18.50;99.90
21037;DHT22;10677;50.942;4.028;2022-08-30T01:47:31;18.40;99.90
21037;DHT22;10677;50.942;4.028;2022-08-30T01:49:57;18.40;99.90
21037;DHT22;10677;50.942;4.028;2022-08-30T01:52:23;18.30;99.90
21037;DHT22;10677;50.942;4.028;2022-08-30T01:54:50;18.50;99.90
21037;DHT22;10677;50.942;4.028;2022-08-30T01:57:19;18.40;99.90
21037;DHT22;10677;50.942;4.028;2022-08-30T01:59:45;18.40;99.90
21037;DHT22;10677;50.942;4.028;2022-08-30T02:02:13;18.30;99.90
21037;DHT22;10677;50.942;4.028;2022-08-30T02:04:40;18.30;99.90
21037;DHT22;10677;50.942;4.028;2022-08-30T02:07:06;18.40;99.90
21037;DHT22;10677;50.942;4.028;2022-08-30T02:09:32;18.30;99.90
21037;DHT22;10677;50.942;4.028;2022-08-30T02:11:57;18.30;99.90
21037;DHT22;10677;50.942;4.028;2022-08-30T02:14:23;18.30;99.90
21037;DHT22;10677;50.942;4.028;2022-08-30T02:16:49;18.20;99.90
21037;DHT22;10677;50.942;4.028;2022-08-30T02:19:15;18.20;99.90
21037;DHT22;10677;50.942;4.028;2022-08-30T02:21:40;18.10;99.90
21037;DHT22;10677;50.942;4.028;2022-08-30T02:24:06;18.10;99.90
21037;DHT22;10677;50.942;4.028;2022-08-30T02:26:32;18.10;99.90
21037;DHT22;10677;50.942;4.028;2022-08-30T02:28:58;18.10;99.90
21037;DHT22;10677;50.942;4.028;2022-08-30T02:31:24;18.10;99.90
21037;DHT22;10677;50.942;4.028;2022-08-30T02:33:51;18.00;99.90
21037;DHT22;10677;50.942;4.028;2022-08-30T02:36:18;18.00;99.90
21037;DHT22;10677;50.942;4.028;2022-08-30T02:38:45;17.80;99.90
21037;DHT22;10677;50.942;4.028;2022-08-30T02:41:11;17.80;99.90
21037;DHT22;10677;50.942;4.028;2022-08-30T02:43:37;17.60;99.90
21037;DHT22;10677;50.942;4.028;2022-08-30T02:46:04;17.60;99.90
21037;DHT22;10677;50.942;4.028;2022-08-30T02:48:29;17.70;99.90
21037;DHT22;10677;50.942;4.028;2022-08-30T02:50:55;17.90;99.90
21037;DHT22;10677;50.942;4.028;2022-08-30T02:53:21;18.00;99.90
21037;DHT22;10677;50.942;4.028;2022-08-30T02:55:47;18.00;99.90
21037;DHT22;10677;50.942;4.028;2022-08-30T02:58:13;18.10;99.90
21037;DHT22;10677;50.942;4.028;2022-08-30T03:00:39;18.10;99.90
21037;DHT22;10677;50.942;4.028;2022-08-30T03:03:06;18.20;99.90
21037;DHT22;10677;50.942;4.028;2022-08-30T03:05:32;18.20;99.90
21037;DHT22;10677;50.942;4.028;2022-08-30T03:07:58;18.20;99.90
21037;DHT22;10677;50.942;4.028;2022-08-30T03:10:25;18.30;99.90
21037;DHT22;10677;50.942;4.028;2022-08-30T03:12:55;18.40;99.90
21037;DHT22;10677;50.942;4.028;2022-08-30T03:15:20;18.40;99.90
21037;DHT22;10677;50.942;4.028;2022-08-30T03:17:50;18.40;99.90
21037;DHT22;10677;50.942;4.028;2022-08-30T03:20:17;18.40;99.90
21037;DHT22;10677;50.942;4.028;2022-08-30T03:22:43;18.40;99.90
21037;DHT22;10677;50.942;4.028;2022-08-30T03:25:08;18.40;99.90
21037;DHT22;10677;50.942;4.028;2022-08-30T03:27:34;18.40;99.90
21037;DHT22;10677;50.942;4.028;2022-08-30T03:30:00;18.30;99.90
21037;DHT22;10677;50.942;4.028;2022-08-30T03:32:26;18.40;99.90
21037;DHT22;10677;50.942;4.028;2022-08-30T03:34:52;18.40;99.90
21037;DHT22;10677;50.942;4.028;2022-08-30T03:37:17;18.40;99.90
21037;DHT22;10677;50.942;4.028;2022-08-30T03:39:44;18.40;99.90
21037;DHT22;10677;50.942;4.028;2022-08-30T03:42:10;18.30;99.90
21037;DHT22;10677;50.942;4.028;2022-08-30T03:44:36;18.20;99.90
21037;DHT22;10677;50.942;4.028;2022-08-30T03:47:03;18.20;99.90
21037;DHT22;10677;50.942;4.028;2022-08-30T03:49:29;18.20;99.90
21037;DHT22;10677;50.942;4.028;2022-08-30T03:51:55;18.10;99.90
21037;DHT22;10677;50.942;4.028;2022-08-30T03:54:21;17.80;99.90
21037;DHT22;10677;50.942;4.028;2022-08-30T03:56:46;17.70;99.90
21037;DHT22;10677;50.942;4.028;2022-08-30T03:59:13;17.80;99.90
21037;DHT22;10677;50.942;4.028;2022-08-30T04:01:38;17.80;99.90
21037;DHT22;10677;50.942;4.028;2022-08-30T04:04:06;17.70;99.90
21037;DHT22;10677;50.942;4.028;2022-08-30T04:06:32;17.60;99.90
21037;DHT22;10677;50.942;4.028;2022-08-30T04:08:58;17.70;99.90
21037;DHT22;10677;50.942;4.028;2022-08-30T04:11:23;17.60;99.90
21037;DHT22;10677;50.942;4.028;2022-08-30T04:13:50;17.80;99.90
21037;DHT22;10677;50.942;4.028;2022-08-30T04:16:18;17.70;99.90
21037;DHT22;10677;50.942;4.028;2022-08-30T04:18:43;17.60;99.90
21037;DHT22;10677;50.942;4.028;2022-08-30T04:21:09;17.70;99.90
21037;DHT22;10677;50.942;4.028;2022-08-30T04:23:35;17.80;99.90
21037;DHT22;10677;50.942;4.028;2022-08-30T04:26:00;17.80;99.90
21037;DHT22;10677;50.942;4.028;2022-08-30T04:28:26;18.00;99.90
21037;DHT22;10677;50.942;4.028;2022-08-30T04:30:52;18.00;99.90
21037;DHT22;10677;50.942;4.028;2022-08-30T04:33:18;18.00;99.90
21037;DHT22;10677;50.942;4.028;2022-08-30T04:35:46;17.70;99.90
21037;DHT22;10677;50.942;4.028;2022-08-30T04:38:13;17.40;99.90
21037;DHT22;10677;50.942;4.028;2022-08-30T04:40:44;17.40;99.90
21037;DHT22;10677;50.942;4.028;2022-08-30T04:43:10;17.60;99.90
21037;DHT22;10677;50.942;4.028;2022-08-30T04:45:38;17.70;99.90
21037;DHT22;10677;50.942;4.028;2022-08-30T04:48:05;17.80;99.90
21037;DHT22;10677;50.942;4.028;2022-08-30T04:50:32;18.00;99.90
21037;DHT22;10677;50.942;4.028;2022-08-30T04:52:58;17.90;99.90
21037;DHT22;10677;50.942;4.028;2022-08-30T04:55:24;18.00;99.90
21037;DHT22;10677;50.942;4.028;2022-08-30T04:57:51;18.00;99.90
21037;DHT22;10677;50.942;4.028;2022-08-30T05:00:18;17.90;99.90
21037;DHT22;10677;50.942;4.028;2022-08-30T05:02:45;17.90;99.90
21037;DHT22;10677;50.942;4.028;2022-08-30T05:05:10;17.90;99.90
21037;DHT22;10677;50.942;4.028;2022-08-30T05:07:55;17.70;99.90
21037;DHT22;10677;50.942;4.028;2022-08-30T05:10:21;17.60;99.90
21037;DHT22;10677;50.942;4.028;2022-08-30T05:12:47;17.40;99.90
21037;DHT22;10677;50.942;4.028;2022-08-30T05:15:13;17.40;99.90
21037;DHT22;10677;50.942;4.028;2022-08-30T05:17:40;17.60;99.90
21037;DHT22;10677;50.942;4.028;2022-08-30T05:20:07;17.80;99.90
21037;DHT22;10677;50.942;4.028;2022-08-30T05:22:39;17.90;99.90
21037;DHT22;10677;50.942;4.028;2022-08-30T05:25:06;18.00;99.90
21037;DHT22;10677;50.942;4.028;2022-08-30T05:27:31;18.10;99.90
21037;DHT22;10677;50.942;4.028;2022-08-30T05:29:57;18.10;99.90
21037;DHT22;10677;50.942;4.028;2022-08-30T05:32:23;17.90;99.90
21037;DHT22;10677;50.942;4.028;2022-08-30T05:34:49;17.70;99.90
21037;DHT22;10677;50.942;4.028;2022-08-30T05:37:14;17.70;99.90
21037;DHT22;10677;50.942;4.028;2022-08-30T05:39:40;17.70;99.90
21037;DHT22;10677;50.942;4.028;2022-08-30T05:42:06;17.70;99.90
21037;DHT22;10677;50.942;4.028;2022-08-30T05:44:31;17.60;99.90
21037;DHT22;10677;50.942;4.028;2022-08-30T05:46:57;17.80;99.90
21037;DHT22;10677;50.942;4.028;2022-08-30T05:49:22;17.90;99.90
21037;DHT22;10677;50.942;4.028;2022-08-30T05:51:48;18.00;99.90
21037;DHT22;10677;50.942;4.028;2022-08-30T05:54:14;18.20;99.90
21037;DHT22;10677;50.942;4.028;2022-08-30T05:56:42;18.20;99.90
21037;DHT22;10677;50.942;4.028;2022-08-30T05:59:10;18.10;99.90
21037;DHT22;10677;50.942;4.028;2022-08-30T06:01:38;18.20;99.90
21037;DHT22;10677;50.942;4.028;2022-08-30T06:04:05;18.30;99.90
21037;DHT22;10677;50.942;4.028;2022-08-30T06:06:34;18.50;99.90
21037;DHT22;10677;50.942;4.028;2022-08-30T06:09:01;18.50;99.90
21037;DHT22;10677;50.942;4.028;2022-08-30T06:11:27;18.60;99.90
21037;DHT22;10677;50.942;4.028;2022-08-30T06:13:54;18.30;99.90
21037;DHT22;10677;50.942;4.028;2022-08-30T06:16:22;18.30;99.90
21037;DHT22;10677;50.942;4.028;2022-08-30T06:18:48;18.20;99.90
21037;DHT22;10677;50.942;4.028;2022-08-30T06:21:24;18.30;99.90
21037;DHT22;10677;50.942;4.028;2022-08-30T06:23:51;18.30;99.90
21037;DHT22;10677;50.942;4.028;2022-08-30T06:26:18;18.20;99.90
21037;DHT22;10677;50.942;4.028;2022-08-30T06:28:43;18.20;99.90
21037;DHT22;10677;50.942;4.028;2022-08-30T06:31:12;18.40;99.90
21037;DHT22;10677;50.942;4.028;2022-08-30T06:33:39;18.60;99.90
21037;DHT22;10677;50.942;4.028;2022-08-30T06:36:07;18.80;99.90
21037;DHT22;10677;50.942;4.028;2022-08-30T06:38:35;18.90;99.90
21037;DHT22;10677;50.942;4.028;2022-08-30T06:41:06;19.00;99.90
21037;DHT22;10677;50.942;4.028;2022-08-30T06:43:32;19.00;99.90
21037;DHT22;10677;50.942;4.028;2022-08-30T06:46:06;18.90;99.90
21037;DHT22;10677;50.942;4.028;2022-08-30T06:48:33;19.00;99.90
21037;DHT22;10677;50.942;4.028;2022-08-30T06:50:58;19.00;99.90
21037;DHT22;10677;50.942;4.028;2022-08-30T06:53:25;19.00;99.90
21037;DHT22;10677;50.942;4.028;2022-08-30T06:56:18;18.90;99.90
21037;DHT22;10677;50.942;4.028;2022-08-30T06:58:44;19.20;99.90
21037;DHT22;10677;50.942;4.028;2022-08-30T07:01:12;19.20;99.90
21037;DHT22;10677;50.942;4.028;2022-08-30T07:03:38;19.10;99.90
21037;DHT22;10677;50.942;4.028;2022-08-30T07:06:05;19.10;99.90
21037;DHT22;10677;50.942;4.028;2022-08-30T07:08:31;19.10;99.90
21037;DHT22;10677;50.942;4.028;2022-08-30T07:10:58;19.10;99.90
21037;DHT22;10677;50.942;4.028;2022-08-30T07:13:24;19.30;99.90
21037;DHT22;10677;50.942;4.028;2022-08-30T07:15:50;19.40;99.90
21037;DHT22;10677;50.942;4.028;2022-08-30T07:18:17;19.60;99.90
21037;DHT22;10677;50.942;4.028;2022-08-30T07:21:10;19.50;99.90
21037;DHT22;10677;50.942;4.028;2022-08-30T07:23:36;19.50;99.90
21037;DHT22;10677;50.942;4.028;2022-08-30T07:26:06;19.40;99.90
21037;DHT22;10677;50.942;4.028;2022-08-30T07:28:34;19.50;99.90
21037;DHT22;10677;50.942;4.028;2022-08-30T07:31:00;19.60;99.90
21037;DHT22;10677;50.942;4.028;2022-08-30T07:33:26;19.70;99.90
21037;DHT22;10677;50.942;4.028;2022-08-30T07:35:52;19.80;99.90
21037;DHT22;10677;50.942;4.028;2022-08-30T07:38:18;20.00;99.90
21037;DHT22;10677;50.942;4.028;2022-08-30T07:40:43;20.00;99.90
21037;DHT22;10677;50.942;4.028;2022-08-30T07:43:09;20.00;99.90
21037;DHT22;10677;50.942;4.028;2022-08-30T07:45:36;20.10;99.90
21037;DHT22;10677;50.942;4.028;2022-08-30T07:48:02;20.10;99.90
21037;DHT22;10677;50.942;4.028;2022-08-30T07:50:28;20.20;99.90
21037;DHT22;10677;50.942;4.028;2022-08-30T07:52:54;20.40;99.90
21037;DHT22;10677;50.942;4.028;2022-08-30T07:55:19;20.60;99.90
21037;DHT22;10677;50.942;4.028;2022-08-30T07:57:45;20.80;99.90
21037;DHT22;10677;50.942;4.028;2022-08-30T08:00:11;20.80;99.90
21037;DHT22;10677;50.942;4.028;2022-08-30T08:02:37;20.50;99.90
21037;DHT22;10677;50.942;4.028;2022-08-30T08:05:05;20.20;99.90
21037;DHT22;10677;50.942;4.028;2022-08-30T08:07:32;20.20;99.90
21037;DHT22;10677;50.942;4.028;2022-08-30T08:09:59;20.30;99.90
21037;DHT22;10677;50.942;4.028;2022-08-30T08:12:24;20.40;99.90
21037;DHT22;10677;50.942;4.028;2022-08-30T08:14:51;20.60;99.90
21037;DHT22;10677;50.942;4.028;2022-08-30T08:17:17;20.70;99.90
21037;DHT22;10677;50.942;4.028;2022-08-30T08:19:43;20.80;99.90
21037;DHT22;10677;50.942;4.028;2022-08-30T08:22:08;20.80;99.90
21037;DHT22;10677;50.942;4.028;2022-08-30T08:24:34;20.80;99.90
21037;DHT22;10677;50.942;4.028;2022-08-30T08:26:59;20.70;99.90
21037;DHT22;10677;50.942;4.028;2022-08-30T08:29:25;20.60;99.90
21037;DHT22;10677;50.942;4.028;2022-08-30T08:31:52;20.70;99.90
21037;DHT22;10677;50.942;4.028;2022-08-30T08:34:18;20.80;99.90
21037;DHT22;10677;50.942;4.028;2022-08-30T08:36:48;20.90;99.90
21037;DHT22;10677;50.942;4.028;2022-08-30T08:39:14;21.10;99.90
21037;DHT22;10677;50.942;4.028;2022-08-30T08:44:53;21.00;99.90
21037;DHT22;10677;50.942;4.028;2022-08-30T08:47:40;20.90;99.90
21037;DHT22;10677;50.942;4.028;2022-08-30T08:50:12;21.10;99.90
21037;DHT22;10677;50.942;4.028;2022-08-30T08:55:52;21.00;99.90
21037;DHT22;10677;50.942;4.028;2022-08-30T08:58:27;21.30;99.90
21037;DHT22;10677;50.942;4.028;2022-08-30T09:00:55;21.30;99.90
21037;DHT22;10677;50.942;4.028;2022-08-30T09:03:23;21.30;99.90
21037;DHT22;10677;50.942;4.028;2022-08-30T09:05:51;21.40;99.90
21037;DHT22;10677;50.942;4.028;2022-08-30T09:08:19;21.50;99.90
21037;DHT22;10677;50.942;4.028;2022-08-30T09:10:52;21.70;99.90
21037;DHT22;10677;50.942;4.028;2022-08-30T09:13:22;22.00;99.90
21037;DHT22;10677;50.942;4.028;2022-08-30T09:15:50;22.00;99.90
21037;DHT22;10677;50.942;4.028;2022-08-30T09:18:16;21.70;99.90
21037;DHT22;10677;50.942;4.028;2022-08-30T09:20:49;21.80;99.90
21037;DHT22;10677;50.942;4.028;2022-08-30T09:23:20;21.80;99.90
21037;DHT22;10677;50.942;4.028;2022-08-30T09:25:58;21.80;99.90
21037;DHT22;10677;50.942;4.028;2022-08-30T09:28:30;21.80;99.90
21037;DHT22;10677;50.942;4.028;2022-08-30T09:31:07;21.90;99.90
21037;DHT22;10677;50.942;4.028;2022-08-30T09:34:06;22.20;99.90
21037;DHT22;10677;50.942;4.028;2022-08-30T09:36:42;22.40;99.90
21037;DHT22;10677;50.942;4.028;2022-08-30T09:41:44;22.60;99.90
21037;DHT22;10677;50.942;4.028;2022-08-30T09:44:20;22.70;99.90
21037;DHT22;10677;50.942;4.028;2022-08-30T09:46:50;22.60;99.90
21037;DHT22;10677;50.942;4.028;2022-08-30T09:49:35;22.70;99.90
21037;DHT22;10677;50.942;4.028;2022-08-30T09:54:52;22.60;99.90
21037;DHT22;10677;50.942;4.028;2022-08-30T10:00:14;23.10;99.90
21037;DHT22;10677;50.942;4.028;2022-08-30T10:11:31;23.80;99.90
21037;DHT22;10677;50.942;4.028;2022-08-30T10:17:37;24.10;99.90
21037;DHT22;10677;50.942;4.028;2022-08-30T10:20:32;23.80;99.90
21037;DHT22;10677;50.942;4.028;2022-08-30T10:23:15;23.90;99.90
21037;DHT22;10677;50.942;4.028;2022-08-30T10:28:54;24.20;99.90
21037;DHT22;10677;50.942;4.028;2022-08-30T10:34:07;24.10;99.90
21037;DHT22;10677;50.942;4.028;2022-08-30T10:36:45;24.10;99.90
21037;DHT22;10677;50.942;4.028;2022-08-30T10:39:17;24.20;99.90
21037;DHT22;10677;50.942;4.028;2022-08-30T10:41:54;24.20;99.90
21037;DHT22;10677;50.942;4.028;2022-08-30T10:44:26;24.40;99.90
21037;DHT22;10677;50.942;4.028;2022-08-30T10:47:23;24.40;99.90
21037;DHT22;10677;50.942;4.028;2022-08-30T10:50:03;24.80;99.90
21037;DHT22;10677;50.942;4.028;2022-08-30T10:55:30;25.40;99.90
21037;DHT22;10677;50.942;4.028;2022-08-30T10:58:02;25.60;99.90
21037;DHT22;10677;50.942;4.028;2022-08-30T11:00:40;25.80;99.90
21037;DHT22;10677;50.942;4.028;2022-08-30T11:14:04;27.00;99.90
21037;DHT22;10677;50.942;4.028;2022-08-30T11:16:49;27.20;99.90
21037;DHT22;10677;50.942;4.028;2022-08-30T11:19:23;27.00;99.90
21037;DHT22;10677;50.942;4.028;2022-08-30T11:21:52;26.60;99.90
21037;DHT22;10677;50.942;4.028;2022-08-30T11:24:23;26.20;99.90
21037;DHT22;10677;50.942;4.028;2022-08-30T11:26:52;26.30;99.90
21037;DHT22;10677;50.942;4.028;2022-08-30T11:42:48;26.60;99.90
21037;DHT22;10677;50.942;4.028;2022-08-30T11:48:07;25.90;99.90
21037;DHT22;10677;50.942;4.028;2022-08-30T11:53:47;25.90;99.90
21037;DHT22;10677;50.942;4.028;2022-08-30T11:58:53;26.60;99.90
21037;DHT22;10677;50.942;4.028;2022-08-30T12:04:11;26.80;99.90
21037;DHT22;10677;50.942;4.028;2022-08-30T12:09:09;26.90;99.90
21037;DHT22;10677;50.942;4.028;2022-08-30T12:14:03;27.40;99.90
21037;DHT22;10677;50.942;4.028;2022-08-30T12:16:39;27.20;99.90
21037;DHT22;10677;50.942;4.028;2022-08-30T12:19:28;26.70;99.90
21037;DHT22;10677;50.942;4.028;2022-08-30T12:21:57;27.00;99.90
21037;DHT22;10677;50.942;4.028;2022-08-30T12:24:36;27.60;99.90
21037;DHT22;10677;50.942;4.028;2022-08-30T12:27:28;28.30;99.90
21037;DHT22;10677;50.942;4.028;2022-08-30T12:30:00;28.70;99.90
21037;DHT22;10677;50.942;4.028;2022-08-30T12:32:27;28.60;99.90
21037;DHT22;10677;50.942;4.028;2022-08-30T12:34:59;28.40;99.90
21037;DHT22;10677;50.942;4.028;2022-08-30T12:37:28;28.10;99.90
21037;DHT22;10677;50.942;4.028;2022-08-30T12:42:29;27.40;99.90
21037;DHT22;10677;50.942;4.028;2022-08-30T12:44:57;27.20;99.90
21037;DHT22;10677;50.942;4.028;2022-08-30T12:47:31;27.50;99.90
21037;DHT22;10677;50.942;4.028;2022-08-30T12:50:01;27.70;99.90
21037;DHT22;10677;50.942;4.028;2022-08-30T12:52:34;27.10;99.90
21037;DHT22;10677;50.942;4.028;2022-08-30T12:55:21;26.90;99.90
21037;DHT22;10677;50.942;4.028;2022-08-30T12:58:06;27.10;99.90
21037;DHT22;10677;50.942;4.028;2022-08-30T13:00:35;26.80;99.90
21037;DHT22;10677;50.942;4.028;2022-08-30T13:03:32;26.60;99.90
21037;DHT22;10677;50.942;4.028;2022-08-30T13:05:58;26.50;99.90
21037;DHT22;10677;50.942;4.028;2022-08-30T13:08:30;26.80;99.90
21037;DHT22;10677;50.942;4.028;2022-08-30T13:11:07;27.00;99.90
21037;DHT22;10677;50.942;4.028;2022-08-30T13:18:42;26.90;99.90
21037;DHT22;10677;50.942;4.028;2022-08-30T13:23:55;26.80;99.90
21037;DHT22;10677;50.942;4.028;2022-08-30T13:26:21;27.00;99.90
21037;DHT22;10677;50.942;4.028;2022-08-30T13:28:51;27.20;99.90
21037;DHT22;10677;50.942;4.028;2022-08-30T13:31:18;27.50;99.90
21037;DHT22;10677;50.942;4.028;2022-08-30T13:33:44;27.10;99.90
21037;DHT22;10677;50.942;4.028;2022-08-30T13:36:12;27.00;99.90
21037;DHT22;10677;50.942;4.028;2022-08-30T13:38:38;27.10;99.90
21037;DHT22;10677;50.942;4.028;2022-08-30T13:41:04;27.50;99.90
21037;DHT22;10677;50.942;4.028;2022-08-30T13:43:30;27.50;99.90
21037;DHT22;10677;50.942;4.028;2022-08-30T13:45:55;27.50;99.90
21037;DHT22;10677;50.942;4.028;2022-08-30T13:48:23;28.00;99.90
21037;DHT22;10677;50.942;4.028;2022-08-30T13:50:49;28.90;99.90
21037;DHT22;10677;50.942;4.028;2022-08-30T13:53:15;29.30;99.90
21037;DHT22;10677;50.942;4.028;2022-08-30T13:55:41;29.70;99.90
21037;DHT22;10677;50.942;4.028;2022-08-30T13:58:07;30.30;99.90
21037;DHT22;10677;50.942;4.028;2022-08-30T14:00:33;31.20;99.90
21037;DHT22;10677;50.942;4.028;2022-08-30T14:03:00;32.10;99.90
21037;DHT22;10677;50.942;4.028;2022-08-30T14:05:34;32.40;99.90
21037;DHT22;10677;50.942;4.028;2022-08-30T14:08:00;32.90;99.90
21037;DHT22;10677;50.942;4.028;2022-08-30T14:10:28;33.50;99.90
21037;DHT22;10677;50.942;4.028;2022-08-30T14:12:54;32.50;99.90
21037;DHT22;10677;50.942;4.028;2022-08-30T14:15:19;31.70;99.90
21037;DHT22;10677;50.942;4.028;2022-08-30T14:17:45;31.20;99.90
21037;DHT22;10677;50.942;4.028;2022-08-30T14:20:11;30.00;99.90
21037;DHT22;10677;50.942;4.028;2022-08-30T14:22:37;29.30;99.90
21037;DHT22;10677;50.942;4.028;2022-08-30T14:25:03;28.40;99.90
21037;DHT22;10677;50.942;4.028;2022-08-30T14:27:29;28.10;99.90
21037;DHT22;10677;50.942;4.028;2022-08-30T14:29:55;28.00;99.90
21037;DHT22;10677;50.942;4.028;2022-08-30T14:32:20;27.70;99.90
21037;DHT22;10677;50.942;4.028;2022-08-30T14:34:46;27.70;99.90
21037;DHT22;10677;50.942;4.028;2022-08-30T14:37:12;27.80;99.90
21037;DHT22;10677;50.942;4.028;2022-08-30T14:39:38;27.80;99.90
21037;DHT22;10677;50.942;4.028;2022-08-30T14:42:04;27.80;99.90
21037;DHT22;10677;50.942;4.028;2022-08-30T14:44:30;27.70;99.90
21037;DHT22;10677;50.942;4.028;2022-08-30T14:46:55;27.50;99.90
21037;DHT22;10677;50.942;4.028;2022-08-30T14:49:21;27.50;99.90
21037;DHT22;10677;50.942;4.028;2022-08-30T14:51:47;27.30;99.90
21037;DHT22;10677;50.942;4.028;2022-08-30T14:54:18;27.30;99.90
21037;DHT22;10677;50.942;4.028;2022-08-30T14:56:44;27.70;99.90
21037;DHT22;10677;50.942;4.028;2022-08-30T14:59:10;28.40;99.90
21037;DHT22;10677;50.942;4.028;2022-08-30T15:01:38;29.30;99.90
21037;DHT22;10677;50.942;4.028;2022-08-30T15:04:05;29.90;99.90
21037;DHT22;10677;50.942;4.028;2022-08-30T15:06:31;30.40;99.90
21037;DHT22;10677;50.942;4.028;2022-08-30T15:08:57;30.90;99.90
21037;DHT22;10677;50.942;4.028;2022-08-30T15:11:24;30.10;99.90
21037;DHT22;10677;50.942;4.028;2022-08-30T15:13:50;29.10;99.90
21037;DHT22;10677;50.942;4.028;2022-08-30T15:16:23;28.70;99.90
21037;DHT22;10677;50.942;4.028;2022-08-30T15:18:50;28.40;99.90
21037;DHT22;10677;50.942;4.028;2022-08-30T15:21:27;28.40;99.90
21037;DHT22;10677;50.942;4.028;2022-08-30T15:23:53;29.60;99.90
21037;DHT22;10677;50.942;4.028;2022-08-30T15:26:19;30.10;99.90
21037;DHT22;10677;50.942;4.028;2022-08-30T15:28:45;30.30;99.90
21037;DHT22;10677;50.942;4.028;2022-08-30T15:31:11;29.60;99.90
21037;DHT22;10677;50.942;4.028;2022-08-30T15:33:37;28.90;99.90
21037;DHT22;10677;50.942;4.028;2022-08-30T15:36:04;28.40;99.90
21037;DHT22;10677;50.942;4.028;2022-08-30T15:38:30;28.00;99.90
21037;DHT22;10677;50.942;4.028;2022-08-30T15:40:56;28.00;99.90
21037;DHT22;10677;50.942;4.028;2022-08-30T15:43:26;28.10;99.90
21037;DHT22;10677;50.942;4.028;2022-08-30T15:45:53;27.80;99.90
21037;DHT22;10677;50.942;4.028;2022-08-30T15:48:19;27.50;99.90
21037;DHT22;10677;50.942;4.028;2022-08-30T15:50:45;27.30;99.90
21037;DHT22;10677;50.942;4.028;2022-08-30T15:53:10;27.30;99.90
21037;DHT22;10677;50.942;4.028;2022-08-30T15:55:36;27.30;99.90
21037;DHT22;10677;50.942;4.028;2022-08-30T15:58:02;27.50;99.90
21037;DHT22;10677;50.942;4.028;2022-08-30T16:00:27;27.70;99.90
21037;DHT22;10677;50.942;4.028;2022-08-30T16:02:53;27.90;99.90
21037;DHT22;10677;50.942;4.028;2022-08-30T16:05:19;27.80;99.90
21037;DHT22;10677;50.942;4.028;2022-08-30T16:07:49;27.60;99.90
21037;DHT22;10677;50.942;4.028;2022-08-30T16:10:15;27.80;99.90
21037;DHT22;10677;50.942;4.028;2022-08-30T16:12:40;28.20;99.90
21037;DHT22;10677;50.942;4.028;2022-08-30T16:15:07;28.50;99.90
21037;DHT22;10677;50.942;4.028;2022-08-30T16:17:33;28.40;99.90
21037;DHT22;10677;50.942;4.028;2022-08-30T16:19:58;28.10;99.90
21037;DHT22;10677;50.942;4.028;2022-08-30T16:22:24;27.40;99.90
21037;DHT22;10677;50.942;4.028;2022-08-30T16:24:50;27.20;99.90
21037;DHT22;10677;50.942;4.028;2022-08-30T16:27:16;27.40;99.90
21037;DHT22;10677;50.942;4.028;2022-08-30T16:29:42;27.20;99.90
21037;DHT22;10677;50.942;4.028;2022-08-30T16:32:07;27.00;99.90
21037;DHT22;10677;50.942;4.028;2022-08-30T16:34:33;26.90;99.90
21037;DHT22;10677;50.942;4.028;2022-08-30T16:36:58;26.90;99.90
21037;DHT22;10677;50.942;4.028;2022-08-30T16:39:24;27.20;99.90
21037;DHT22;10677;50.942;4.028;2022-08-30T16:41:50;27.30;99.90
21037;DHT22;10677;50.942;4.028;2022-08-30T16:44:15;27.40;99.90
21037;DHT22;10677;50.942;4.028;2022-08-30T16:46:42;27.10;99.90
21037;DHT22;10677;50.942;4.028;2022-08-30T16:49:07;26.90;99.90
21037;DHT22;10677;50.942;4.028;2022-08-30T16:51:35;27.00;99.90
21037;DHT22;10677;50.942;4.028;2022-08-30T16:54:03;26.80;99.90
21037;DHT22;10677;50.942;4.028;2022-08-30T16:56:30;26.60;99.90
21037;DHT22;10677;50.942;4.028;2022-08-30T16:58:57;26.30;99.90
21037;DHT22;10677;50.942;4.028;2022-08-30T17:01:23;26.10;99.90
21037;DHT22;10677;50.942;4.028;2022-08-30T17:03:49;26.00;99.90
21037;DHT22;10677;50.942;4.028;2022-08-30T17:06:16;26.00;99.90